Time;durP1;ratioP1;P1;durP2;ratioP2;P2;SDS_P1;SDS_P2;PMS_P1;PMS_P2;Temp;Humidity;BMP_temperature;BMP_pressure;BME280_temperature;BME280_humidity;BME280_pressure;Samples;Min_cycle;Max_cycle;Signal;HPM_P1;HPM_P2
2023/09/26 00:01:31;;;;;;;1.00;1.00;;;;;;;;;;5050690;28;20048;-62
2023/09/26 00:03:57;;;;;;;0.95;0.90;;;;;;;;;;5056236;28;20048;-62
2023/09/26 00:06:24;;;;;;;0.65;0.65;;;;;;;;;;5053888;28;20040;-62
2023/09/26 00:08:54;;;;;;;1.00;0.90;;;;;;;;;;5048370;28;20791;-62
2023/09/26 00:11:21;;;;;;;0.75;0.75;;;;;;;;;;5051231;28;20483;-62
2023/09/26 00:13:50;;;;;;;1.10;0.85;;;;;;;;;;5050783;28;20036;-62
2023/09/26 00:16:16;;;;;;;1.58;0.80;;;;;;;;;;5051636;28;20206;-62
2023/09/26 00:18:42;;;;;;;0.88;0.75;;;;;;;;;;5051344;28;20048;-61
2023/09/26 00:21:12;;;;;;;0.85;0.80;;;;;;;;;;5053978;28;20036;-61
2023/09/26 00:23:38;;;;;;;1.38;1.08;;;;;;;;;;5052215;28;20032;-62
2023/09/26 00:26:07;;;;;;;0.77;0.77;;;;;;;;;;5053987;28;20404;-62
2023/09/26 00:28:33;;;;;;;0.60;0.60;;;;;;;;;;5067470;28;20162;-62
2023/09/26 00:31:04;;;;;;;1.95;0.90;;;;;;;;;;5053543;28;20119;-62
2023/09/26 00:33:31;;;;;;;0.98;0.93;;;;;;;;;;5053012;28;20574;-62
2023/09/26 00:36:00;;;;;;;1.30;0.77;;;;;;;;;;5052628;28;20040;-62
2023/09/26 00:38:26;;;;;;;0.85;0.77;;;;;;;;;;5058096;28;20047;-62
2023/09/26 00:40:52;;;;;;;0.82;0.82;;;;;;;;;;5053827;28;20045;-62
2023/09/26 00:43:21;;;;;;;0.77;0.77;;;;;;;;;;5056002;28;20056;-62
2023/09/26 00:45:51;;;;;;;0.80;0.80;;;;;;;;;;5054844;28;20085;-62
2023/09/26 00:48:17;;;;;;;1.02;0.80;;;;;;;;;;5055189;28;20075;-61
2023/09/26 00:50:45;;;;;;;1.40;1.00;;;;;;;;;;5051088;28;20045;-61
2023/09/26 00:53:11;;;;;;;0.68;0.68;;;;;;;;;;5053623;28;20821;-61
2023/09/26 00:55:38;;;;;;;0.95;0.95;;;;;;;;;;5056807;28;20056;-61
2023/09/26 00:58:04;;;;;;;0.70;0.68;;;;;;;;;;5056777;28;20519;-61
2023/09/26 01:00:31;;;;;;;1.02;0.70;;;;;;;;;;5050605;28;20072;-62
2023/09/26 01:02:57;;;;;;;0.80;0.80;;;;;;;;;;5052418;28;20048;-61
2023/09/26 01:05:24;;;;;;;1.35;0.98;;;;;;;;;;5055916;28;20041;-62
2023/09/26 01:07:50;;;;;;;1.10;0.90;;;;;;;;;;5053449;28;20067;-61
2023/09/26 01:10:16;;;;;;;0.93;0.80;;;;;;;;;;5054627;28;20032;-62
2023/09/26 01:12:42;;;;;;;0.73;0.73;;;;;;;;;;5053069;28;20759;-61
2023/09/26 01:15:09;;;;;;;1.10;1.00;;;;;;;;;;5053837;28;20174;-62
2023/09/26 01:17:35;;;;;;;0.77;0.77;;;;;;;;;;5052033;28;20071;-62
2023/09/26 01:20:03;;;;;;;0.80;0.80;;;;;;;;;;5052111;28;20072;-62
2023/09/26 01:22:29;;;;;;;0.80;0.68;;;;;;;;;;5053727;28;20519;-62
2023/09/26 01:24:56;;;;;;;0.60;0.60;;;;;;;;;;5055475;28;20068;-61
2023/09/26 01:27:22;;;;;;;0.73;0.70;;;;;;;;;;5052193;28;20036;-62
2023/09/26 01:29:48;;;;;;;1.27;0.85;;;;;;;;;;5057144;28;21067;-61
2023/09/26 01:32:15;;;;;;;0.60;0.60;;;;;;;;;;5052999;28;20128;-61
2023/09/26 01:34:41;;;;;;;1.10;0.90;;;;;;;;;;5052181;28;20452;-61
2023/09/26 01:37:07;;;;;;;0.70;0.70;;;;;;;;;;5055073;28;20136;-61
2023/09/26 01:39:33;;;;;;;0.85;0.60;;;;;;;;;;5053505;28;20152;-62
2023/09/26 01:41:59;;;;;;;0.60;0.60;;;;;;;;;;5053522;28;20041;-62
2023/09/26 01:44:25;;;;;;;0.90;0.90;;;;;;;;;;5053243;28;20487;-62
2023/09/26 01:46:52;;;;;;;1.38;0.95;;;;;;;;;;5050773;28;20052;-62
2023/09/26 01:49:17;;;;;;;0.50;0.50;;;;;;;;;;5047804;28;20037;-62
2023/09/26 01:51:43;;;;;;;1.05;0.95;;;;;;;;;;5051985;28;20049;-62
2023/09/26 01:54:09;;;;;;;4.93;0.65;;;;;;;;;;5053552;28;20053;-62
2023/09/26 01:56:35;;;;;;;0.60;0.60;;;;;;;;;;5058381;28;20044;-61
2023/09/26 01:59:01;;;;;;;1.00;0.75;;;;;;;;;;5056413;28;20037;-62
2023/09/26 02:01:27;;;;;;;0.82;0.75;;;;;;;;;;5055032;28;20041;-62
2023/09/26 02:03:53;;;;;;;0.77;0.77;;;;;;;;;;5059167;28;20104;-62
2023/09/26 02:06:19;;;;;;;0.80;0.80;;;;;;;;;;5054283;28;20033;-61
2023/09/26 02:08:45;;;;;;;0.80;0.80;;;;;;;;;;5051021;28;20120;-61
2023/09/26 02:11:11;;;;;;;1.00;1.00;;;;;;;;;;5054325;28;20128;-62
2023/09/26 02:13:37;;;;;;;1.17;1.08;;;;;;;;;;5055680;28;20477;-62
2023/09/26 02:16:09;;;;;;;1.10;0.85;;;;;;;;;;5051092;28;20043;-62
2023/09/26 02:18:35;;;;;;;1.35;1.08;;;;;;;;;;5051067;28;20136;-62
2023/09/26 02:21:01;;;;;;;1.08;0.98;;;;;;;;;;5050012;28;20155;-62
2023/09/26 02:23:27;;;;;;;0.88;0.88;;;;;;;;;;5049611;28;20049;-61
2023/09/26 02:25:53;;;;;;;0.82;0.80;;;;;;;;;;5049568;28;20048;-61
2023/09/26 02:28:20;;;;;;;1.10;1.00;;;;;;;;;;5053351;28;20485;-61
2023/09/26 02:30:46;;;;;;;0.60;0.60;;;;;;;;;;5055775;28;20037;-61
2023/09/26 02:33:12;;;;;;;1.05;0.95;;;;;;;;;;5056481;28;20041;-61
2023/09/26 02:35:38;;;;;;;1.20;0.80;;;;;;;;;;5048415;28;20082;-61
2023/09/26 02:38:04;;;;;;;0.70;0.70;;;;;;;;;;5053047;28;20049;-62
2023/09/26 02:40:30;;;;;;;0.95;0.85;;;;;;;;;;5054388;28;20068;-61
2023/09/26 02:42:56;;;;;;;1.30;1.20;;;;;;;;;;5054039;28;20068;-61
2023/09/26 02:45:22;;;;;;;0.60;0.50;;;;;;;;;;5053605;28;20041;-61
2023/09/26 02:47:48;;;;;;;0.88;0.88;;;;;;;;;;5054680;28;20381;-61
2023/09/26 02:50:14;;;;;;;0.75;0.75;;;;;;;;;;5055858;28;20041;-62
2023/09/26 02:52:41;;;;;;;1.23;0.90;;;;;;;;;;5053311;28;20048;-61
2023/09/26 02:55:08;;;;;;;0.85;0.82;;;;;;;;;;5051638;28;20057;-61
2023/09/26 02:57:34;;;;;;;0.70;0.60;;;;;;;;;;5049333;28;20080;-62
2023/09/26 03:00:00;;;;;;;0.77;0.65;;;;;;;;;;5049445;28;20037;-62
2023/09/26 03:02:26;;;;;;;0.50;0.50;;;;;;;;;;5055341;28;20040;-62
2023/09/26 03:04:52;;;;;;;0.50;0.50;;;;;;;;;;5055452;28;20064;-62
2023/09/26 03:07:18;;;;;;;0.43;0.43;;;;;;;;;;5047656;28;20091;-62
2023/09/26 03:09:44;;;;;;;0.60;0.60;;;;;;;;;;5048028;28;20729;-62
2023/09/26 03:12:10;;;;;;;0.60;0.60;;;;;;;;;;5050363;28;20032;-62
2023/09/26 03:14:36;;;;;;;0.73;0.57;;;;;;;;;;5054431;28;20040;-62
2023/09/26 03:17:05;;;;;;;0.82;0.50;;;;;;;;;;5059791;28;20112;-61
2023/09/26 03:19:31;;;;;;;0.50;0.50;;;;;;;;;;5054339;28;20851;-61
2023/09/26 03:21:57;;;;;;;0.82;0.73;;;;;;;;;;5055539;28;20048;-61
2023/09/26 03:24:23;;;;;;;0.70;0.70;;;;;;;;;;5056183;28;20047;-61
2023/09/26 03:26:49;;;;;;;0.65;0.65;;;;;;;;;;5053097;28;20041;-61
2023/09/26 03:29:15;;;;;;;0.65;0.55;;;;;;;;;;5056093;28;20033;-62
2023/09/26 03:31:41;;;;;;;0.70;0.70;;;;;;;;;;5053458;28;20049;-61
2023/09/26 03:34:09;;;;;;;0.70;0.70;;;;;;;;;;5055085;28;20044;-62
2023/09/26 03:36:35;;;;;;;0.68;0.52;;;;;;;;;;5055567;28;20117;-61
2023/09/26 03:39:01;;;;;;;0.93;0.82;;;;;;;;;;5053767;28;20514;-62
2023/09/26 03:41:27;;;;;;;0.65;0.65;;;;;;;;;;5060160;28;20078;-62
2023/09/26 03:43:53;;;;;;;0.52;0.52;;;;;;;;;;5054778;28;20093;-61
2023/09/26 03:46:19;;;;;;;0.55;0.55;;;;;;;;;;5055108;28;20043;-61
2023/09/26 03:48:45;;;;;;;0.82;0.70;;;;;;;;;;5052471;28;20044;-62
2023/09/26 03:51:12;;;;;;;0.50;0.50;;;;;;;;;;5055882;28;20765;-61
2023/09/26 03:53:38;;;;;;;1.00;0.77;;;;;;;;;;5052373;28;20032;-61
2023/09/26 03:56:04;;;;;;;0.57;0.57;;;;;;;;;;5054573;28;20677;-61
2023/09/26 03:58:31;;;;;;;0.60;0.60;;;;;;;;;;5055670;28;20534;-61
2023/09/26 04:01:07;;;;;;;0.60;0.60;;;;;;;;;;5059143;28;20055;-61
2023/09/26 04:03:33;;;;;;;0.70;0.70;;;;;;;;;;5059549;28;20150;-62
2023/09/26 04:05:59;;;;;;;0.98;0.80;;;;;;;;;;5059854;28;20044;-61
2023/09/26 04:08:25;;;;;;;0.73;0.70;;;;;;;;;;5057050;28;20047;-61
2023/09/26 04:10:51;;;;;;;0.85;0.82;;;;;;;;;;5050338;28;20041;-61
2023/09/26 04:13:17;;;;;;;0.85;0.52;;;;;;;;;;5051917;28;20036;-61
2023/09/26 04:15:44;;;;;;;0.52;0.52;;;;;;;;;;5051121;28;20389;-61
2023/09/26 04:18:10;;;;;;;0.70;0.70;;;;;;;;;;5052705;28;20094;-61
2023/09/26 04:20:36;;;;;;;0.50;0.50;;;;;;;;;;5055276;28;20044;-61
2023/09/26 04:23:02;;;;;;;0.40;0.40;;;;;;;;;;5053023;28;20645;-61
2023/09/26 04:25:33;;;;;;;0.80;0.60;;;;;;;;;;5057350;28;20079;-61
2023/09/26 04:28:00;;;;;;;0.68;0.65;;;;;;;;;;5055353;28;20040;-61
2023/09/26 04:30:26;;;;;;;0.52;0.52;;;;;;;;;;5055957;28;20039;-61
2023/09/26 04:32:52;;;;;;;0.82;0.82;;;;;;;;;;5053669;28;20048;-61
2023/09/26 04:35:18;;;;;;;0.80;0.80;;;;;;;;;;5057022;28;20045;-62
2023/09/26 04:37:44;;;;;;;1.13;0.90;;;;;;;;;;5058856;28;20048;-61
2023/09/26 04:40:10;;;;;;;1.00;0.85;;;;;;;;;;5056171;28;20064;-62
2023/09/26 04:42:40;;;;;;;0.77;0.70;;;;;;;;;;5056213;28;20126;-62
2023/09/26 04:45:07;;;;;;;0.63;0.63;;;;;;;;;;5057394;28;20039;-62
2023/09/26 04:47:33;;;;;;;0.60;0.60;;;;;;;;;;5053414;28;20106;-61
2023/09/26 04:49:59;;;;;;;0.70;0.70;;;;;;;;;;5052645;28;20041;-61
2023/09/26 04:52:25;;;;;;;0.80;0.80;;;;;;;;;;5054459;28;20119;-62
2023/09/26 04:54:51;;;;;;;0.77;0.50;;;;;;;;;;5048424;28;20123;-61
2023/09/26 04:57:17;;;;;;;1.00;0.70;;;;;;;;;;5056504;28;20048;-61
2023/09/26 04:59:43;;;;;;;0.50;0.50;;;;;;;;;;5050773;28;20044;-62
2023/09/26 05:02:09;;;;;;;0.70;0.70;;;;;;;;;;5057303;28;20116;-62
2023/09/26 05:04:36;;;;;;;0.95;0.80;;;;;;;;;;5054930;28;20115;-62
2023/09/26 05:07:02;;;;;;;0.50;0.50;;;;;;;;;;5057668;28;20513;-61
2023/09/26 05:09:28;;;;;;;0.70;0.70;;;;;;;;;;5058443;28;20044;-62
2023/09/26 05:11:54;;;;;;;0.63;0.63;;;;;;;;;;5048693;28;20124;-61
2023/09/26 05:14:20;;;;;;;0.50;0.50;;;;;;;;;;5050459;28;20183;-61
2023/09/26 05:16:46;;;;;;;1.20;1.00;;;;;;;;;;5049486;28;20467;-61
2023/09/26 05:19:12;;;;;;;1.30;1.02;;;;;;;;;;5048135;28;20032;-61
2023/09/26 05:21:38;;;;;;;1.05;0.80;;;;;;;;;;5049932;28;20049;-61
2023/09/26 05:24:04;;;;;;;0.70;0.70;;;;;;;;;;5051072;28;20041;-62
2023/09/26 05:26:31;;;;;;;0.93;0.75;;;;;;;;;;5051445;28;20068;-62
2023/09/26 05:28:57;;;;;;;0.60;0.60;;;;;;;;;;5051650;28;20044;-61
2023/09/26 05:31:23;;;;;;;0.73;0.70;;;;;;;;;;5052304;28;20056;-62
2023/09/26 05:33:52;;;;;;;0.85;0.70;;;;;;;;;;5049374;28;20068;-62
2023/09/26 05:36:18;;;;;;;0.75;0.60;;;;;;;;;;5041833;28;20620;-61
2023/09/26 05:38:44;;;;;;;0.70;0.70;;;;;;;;;;5050817;28;20051;-61
2023/09/26 05:41:11;;;;;;;0.60;0.60;;;;;;;;;;5055164;28;20041;-62
2023/09/26 05:43:37;;;;;;;1.23;0.90;;;;;;;;;;5047335;28;20041;-61
2023/09/26 05:46:04;;;;;;;0.65;0.65;;;;;;;;;;5048629;28;20761;-61
2023/09/26 05:48:30;;;;;;;1.10;1.00;;;;;;;;;;5041702;28;20124;-61
2023/09/26 05:50:59;;;;;;;0.60;0.60;;;;;;;;;;5054270;28;20055;-62
2023/09/26 05:53:26;;;;;;;0.80;0.80;;;;;;;;;;5045337;28;20036;-62
2023/09/26 05:55:52;;;;;;;0.70;0.70;;;;;;;;;;5053522;28;20130;-61
2023/09/26 05:58:21;;;;;;;0.70;0.70;;;;;;;;;;5050444;28;20612;-61
2023/09/26 06:00:48;;;;;;;0.65;0.65;;;;;;;;;;5049741;28;20044;-61
2023/09/26 06:03:14;;;;;;;0.75;0.70;;;;;;;;;;5046978;28;20049;-61
2023/09/26 06:05:40;;;;;;;0.70;0.70;;;;;;;;;;5048038;28;20032;-61
2023/09/26 06:08:07;;;;;;;1.10;0.98;;;;;;;;;;5045707;28;20059;-62
2023/09/26 06:10:33;;;;;;;1.00;1.00;;;;;;;;;;5050176;28;20036;-62
2023/09/26 06:12:59;;;;;;;0.70;0.70;;;;;;;;;;5055927;28;20071;-61
2023/09/26 06:15:25;;;;;;;0.95;0.80;;;;;;;;;;5054715;28;20489;-62
2023/09/26 06:18:01;;;;;;;0.70;0.70;;;;;;;;;;5047807;28;20622;-62
2023/09/26 06:20:28;;;;;;;0.88;0.80;;;;;;;;;;5052186;28;20493;-61
2023/09/26 06:22:54;;;;;;;1.20;1.10;;;;;;;;;;5051574;28;20048;-62
2023/09/26 06:25:24;;;;;;;1.60;1.00;;;;;;;;;;5051236;28;20045;-61
2023/09/26 06:27:50;;;;;;;1.17;1.08;;;;;;;;;;5053113;28;20040;-62
2023/09/26 06:30:16;;;;;;;1.52;1.42;;;;;;;;;;5046175;28;20032;-62
2023/09/26 06:32:43;;;;;;;1.25;1.15;;;;;;;;;;5049811;28;20440;-61
2023/09/26 06:35:10;;;;;;;0.82;0.80;;;;;;;;;;5051121;28;20037;-62
2023/09/26 06:37:36;;;;;;;1.00;1.00;;;;;;;;;;5050721;28;20036;-62
2023/09/26 06:40:04;;;;;;;1.35;1.10;;;;;;;;;;5049216;28;20047;-62
2023/09/26 06:42:33;;;;;;;0.80;0.80;;;;;;;;;;5050256;28;20099;-61
2023/09/26 06:44:59;;;;;;;0.73;0.73;;;;;;;;;;5044350;28;20497;-62
2023/09/26 06:47:26;;;;;;;0.70;0.70;;;;;;;;;;5060940;28;20135;-62
2023/09/26 06:49:52;;;;;;;1.40;1.30;;;;;;;;;;5054523;28;20433;-62
2023/09/26 06:52:18;;;;;;;1.50;1.40;;;;;;;;;;5051373;28;20106;-62
2023/09/26 06:54:44;;;;;;;1.60;1.50;;;;;;;;;;5049642;28;20539;-62
2023/09/26 06:57:15;;;;;;;1.70;1.60;;;;;;;;;;5055623;28;20036;-62
2023/09/26 06:59:41;;;;;;;2.85;1.55;;;;;;;;;;5052200;28;20041;-61
2023/09/26 07:02:08;;;;;;;1.23;1.17;;;;;;;;;;5046607;28;20043;-62
2023/09/26 07:04:34;;;;;;;1.30;1.10;;;;;;;;;;5055345;28;20041;-62
2023/09/26 07:07:01;;;;;;;1.45;1.35;;;;;;;;;;5049394;28;20083;-61
2023/09/26 07:09:27;;;;;;;1.52;1.42;;;;;;;;;;5051287;28;20405;-61
2023/09/26 07:11:56;;;;;;;1.00;1.00;;;;;;;;;;5055631;28;20040;-62
2023/09/26 07:14:22;;;;;;;1.80;1.65;;;;;;;;;;5048886;28;20393;-62
2023/09/26 07:16:50;;;;;;;2.25;1.67;;;;;;;;;;5055337;28;20071;-62
2023/09/26 07:19:16;;;;;;;1.70;1.60;;;;;;;;;;5047851;28;20572;-62
2023/09/26 07:21:42;;;;;;;1.58;1.42;;;;;;;;;;5048555;28;20123;-62
2023/09/26 07:24:09;;;;;;;1.70;1.60;;;;;;;;;;5052790;28;20203;-66
2023/09/26 07:26:35;;;;;;;1.65;1.50;;;;;;;;;;5048123;28;20124;-59
2023/09/26 07:29:01;;;;;;;1.55;1.45;;;;;;;;;;5052235;28;20094;-62
2023/09/26 07:31:30;;;;;;;2.20;1.75;;;;;;;;;;5055988;28;20531;-63
2023/09/26 07:33:56;;;;;;;1.20;1.08;;;;;;;;;;5055226;28;20511;-62
2023/09/26 07:36:22;;;;;;;1.50;1.38;;;;;;;;;;5054825;28;20041;-62
2023/09/26 07:38:49;;;;;;;1.50;1.40;;;;;;;;;;5053832;28;20029;-62
2023/09/26 07:41:15;;;;;;;1.50;1.40;;;;;;;;;;5054118;28;20094;-62
2023/09/26 07:43:40;;;;;;;2.38;1.98;;;;;;;;;;5052427;28;20415;-62
2023/09/26 07:46:07;;;;;;;1.42;1.20;;;;;;;;;;5047643;28;20052;-61
2023/09/26 07:48:34;;;;;;;1.50;1.40;;;;;;;;;;5047851;28;20037;-61
2023/09/26 07:51:00;;;;;;;1.95;1.30;;;;;;;;;;5050797;28;20037;-61
2023/09/26 07:53:26;;;;;;;2.33;2.00;;;;;;;;;;5049398;28;20052;-61
2023/09/26 07:55:58;;;;;;;2.60;2.33;;;;;;;;;;5054608;28;20598;-61
2023/09/26 07:58:25;;;;;;;1.58;1.40;;;;;;;;;;5055524;28;20045;-61
2023/09/26 08:00:53;;;;;;;1.80;1.55;;;;;;;;;;5054177;28;20033;-61
2023/09/26 08:03:19;;;;;;;1.65;1.55;;;;;;;;;;5059094;28;20087;-61
2023/09/26 08:05:45;;;;;;;1.73;1.63;;;;;;;;;;5059072;28;20117;-61
2023/09/26 08:08:11;;;;;;;3.25;1.92;;;;;;;;;;5052178;28;20388;-60
2023/09/26 08:10:38;;;;;;;1.77;1.67;;;;;;;;;;5052362;28;20043;-61
2023/09/26 08:13:04;;;;;;;1.95;1.77;;;;;;;;;;5052822;28;20045;-61
2023/09/26 08:15:31;;;;;;;2.05;1.95;;;;;;;;;;5052772;28;20396;-60
2023/09/26 08:18:06;;;;;;;1.60;1.50;;;;;;;;;;5055084;28;20048;-61
2023/09/26 08:20:32;;;;;;;1.35;1.25;;;;;;;;;;5049876;28;20098;-65
2023/09/26 08:22:58;;;;;;;1.85;1.75;;;;;;;;;;5049059;28;20053;-66
2023/09/26 08:25:25;;;;;;;2.70;1.63;;;;;;;;;;5051985;28;20076;-63
2023/09/26 08:27:51;;;;;;;1.85;1.75;;;;;;;;;;5050720;28;20036;-63
2023/09/26 08:30:17;;;;;;;2.13;1.92;;;;;;;;;;5053533;28;20103;-61
2023/09/26 08:32:43;;;;;;;1.80;1.70;;;;;;;;;;5046759;28;20037;-61
2023/09/26 08:35:10;;;;;;;1.90;1.67;;;;;;;;;;5047298;28;20039;-61
2023/09/26 08:37:36;;;;;;;1.33;1.23;;;;;;;;;;5054044;28;20056;-61
2023/09/26 08:40:06;;;;;;;2.30;1.60;;;;;;;;;;5051011;28;20041;-60
2023/09/26 08:42:36;;;;;;;1.63;1.48;;;;;;;;;;5057455;28;20040;-67
2023/09/26 08:45:03;;;;;;;1.35;1.25;;;;;;;;;;5049324;28;20037;-61
2023/09/26 08:47:29;;;;;;;1.42;1.30;;;;;;;;;;5051364;28;20029;-61
2023/09/26 08:49:56;;;;;;;1.33;1.23;;;;;;;;;;5047754;28;20037;-61
2023/09/26 08:52:23;;;;;;;1.70;1.60;;;;;;;;;;5048230;28;20647;-60
2023/09/26 08:54:49;;;;;;;1.35;1.25;;;;;;;;;;5048333;28;20102;-61
2023/09/26 08:57:16;;;;;;;1.45;1.02;;;;;;;;;;5048253;28;20057;-61
2023/09/26 08:59:44;;;;;;;1.40;1.30;;;;;;;;;;5048778;28;20047;-61
2023/09/26 09:02:10;;;;;;;1.58;1.33;;;;;;;;;;5048513;28;20532;-61
2023/09/26 09:04:41;;;;;;;1.23;1.13;;;;;;;;;;5047145;28;20484;-61
2023/09/26 09:07:07;;;;;;;0.88;0.85;;;;;;;;;;5047856;28;20140;-61
2023/09/26 09:09:34;;;;;;;1.85;1.75;;;;;;;;;;5047907;28;20116;-61
2023/09/26 09:12:00;;;;;;;2.78;2.58;;;;;;;;;;5047559;28;20048;-61
2023/09/26 09:14:33;;;;;;;3.10;2.90;;;;;;;;;;5048012;28;20040;-61
2023/09/26 09:16:59;;;;;;;2.55;2.35;;;;;;;;;;5047752;28;20041;-61
2023/09/26 09:19:45;;;;;;;2.10;1.90;;;;;;;;;;5048498;28;20039;-61
2023/09/26 09:22:15;;;;;;;3.25;2.70;;;;;;;;;;5048271;28;20115;-61
2023/09/26 09:24:41;;;;;;;2.70;2.50;;;;;;;;;;5040052;28;20040;-61
2023/09/26 09:27:07;;;;;;;2.47;2.22;;;;;;;;;;5048265;28;20444;-61
2023/09/26 09:29:33;;;;;;;3.03;2.75;;;;;;;;;;5048803;28;20044;-61
2023/09/26 09:31:59;;;;;;;3.17;2.88;;;;;;;;;;5048407;28;20044;-61
2023/09/26 09:34:27;;;;;;;2.50;2.30;;;;;;;;;;5048463;28;20045;-61
2023/09/26 09:36:56;;;;;;;2.28;2.08;;;;;;;;;;5048477;28;20064;-61
2023/09/26 09:39:25;;;;;;;2.28;1.70;;;;;;;;;;5047798;28;20049;-61
2023/09/26 09:41:57;;;;;;;2.22;1.50;;;;;;;;;;5048150;28;20099;-61
2023/09/26 09:44:23;;;;;;;2.08;1.88;;;;;;;;;;5048745;28;20040;-61
2023/09/26 09:46:55;;;;;;;2.95;2.03;;;;;;;;;;5047337;28;20084;-61
2023/09/26 09:49:23;;;;;;;2.55;2.17;;;;;;;;;;5048350;28;20043;-61
2023/09/26 09:51:50;;;;;;;3.55;2.35;;;;;;;;;;5047927;28;20094;-61
2023/09/26 09:54:18;;;;;;;4.80;3.00;;;;;;;;;;5047281;28;20064;-61
2023/09/26 09:56:46;;;;;;;4.35;2.67;;;;;;;;;;5047721;28;20060;-61
2023/09/26 09:59:15;;;;;;;3.38;3.08;;;;;;;;;;5047607;28;20051;-61
2023/09/26 10:01:45;;;;;;;5.00;2.70;;;;;;;;;;5042487;28;20033;-61
2023/09/26 10:04:12;;;;;;;2.72;2.22;;;;;;;;;;5042410;28;20060;-61
2023/09/26 10:06:40;;;;;;;1.90;1.80;;;;;;;;;;5044766;28;20041;-61
2023/09/26 10:09:06;;;;;;;2.30;2.10;;;;;;;;;;5047642;28;20051;-61
2023/09/26 10:11:33;;;;;;;2.45;2.25;;;;;;;;;;5046740;28;20123;-61
2023/09/26 10:13:59;;;;;;;2.35;2.03;;;;;;;;;;5047574;28;20037;-61
2023/09/26 10:16:25;;;;;;;1.77;1.35;;;;;;;;;;5048608;28;20037;-61
2023/09/26 10:18:51;;;;;;;2.78;1.98;;;;;;;;;;5047154;28;20073;-61
2023/09/26 10:21:20;;;;;;;2.10;1.85;;;;;;;;;;5048355;28;20045;-61
2023/09/26 10:24:08;;;;;;;1.70;1.60;;;;;;;;;;5048566;28;20560;-61
2023/09/26 10:26:37;;;;;;;1.73;1.50;;;;;;;;;;5052741;28;20061;-61
2023/09/26 10:29:13;;;;;;;2.20;1.83;;;;;;;;;;5054959;28;20040;-61
2023/09/26 10:31:42;;;;;;;2.22;1.58;;;;;;;;;;5058005;28;20044;-61
2023/09/26 10:34:08;;;;;;;2.00;1.83;;;;;;;;;;5046485;28;20062;-62
2023/09/26 10:36:34;;;;;;;1.48;1.38;;;;;;;;;;5052974;28;20053;-61
2023/09/26 10:39:02;;;;;;;1.48;1.25;;;;;;;;;;5052236;28;20559;-61
2023/09/26 10:41:30;;;;;;;2.17;1.92;;;;;;;;;;5053062;28;20044;-61
2023/09/26 10:43:56;;;;;;;1.73;1.63;;;;;;;;;;5048522;28;20037;-61
2023/09/26 10:46:22;;;;;;;2.20;2.00;;;;;;;;;;5052679;28;20147;-61
2023/09/26 10:48:48;;;;;;;2.53;2.00;;;;;;;;;;5049545;28;20400;-62
2023/09/26 10:51:15;;;;;;;3.05;1.83;;;;;;;;;;5049578;28;20098;-62
2023/09/26 10:53:42;;;;;;;1.60;1.35;;;;;;;;;;5048397;28;20041;-62
2023/09/26 10:56:08;;;;;;;1.55;1.30;;;;;;;;;;5045949;28;20086;-61
2023/09/26 10:58:35;;;;;;;1.95;1.50;;;;;;;;;;5051145;28;20170;-62
2023/09/26 11:01:01;;;;;;;2.72;1.48;;;;;;;;;;5053381;28;20044;-62
2023/09/26 11:03:29;;;;;;;1.83;1.35;;;;;;;;;;5048904;28;20441;-62
2023/09/26 11:05:56;;;;;;;1.77;1.45;;;;;;;;;;5057158;28;20056;-61
2023/09/26 11:08:23;;;;;;;2.30;2.10;;;;;;;;;;5053886;28;20094;-62
2023/09/26 11:10:49;;;;;;;2.08;1.58;;;;;;;;;;5050748;28;20130;-62
2023/09/26 11:13:16;;;;;;;1.15;0.80;;;;;;;;;;5043625;28;20048;-62
2023/09/26 11:15:45;;;;;;;1.17;1.08;;;;;;;;;;5051478;28;20064;-62
2023/09/26 11:18:14;;;;;;;1.65;1.15;;;;;;;;;;5049142;28;20049;-62
2023/09/26 11:20:40;;;;;;;2.28;1.48;;;;;;;;;;5049823;28;20473;-62
2023/09/26 11:23:07;;;;;;;1.88;1.67;;;;;;;;;;5051562;28;20048;-62
2023/09/26 11:25:33;;;;;;;2.50;1.95;;;;;;;;;;5049068;28;20417;-62
2023/09/26 11:27:59;;;;;;;1.40;1.30;;;;;;;;;;5049151;28;20052;-62
2023/09/26 11:30:25;;;;;;;1.83;0.88;;;;;;;;;;5048664;28;20049;-62
2023/09/26 11:32:54;;;;;;;1.48;0.90;;;;;;;;;;5054077;28;20057;-62
2023/09/26 11:35:21;;;;;;;1.50;1.05;;;;;;;;;;5048423;28;20124;-62
2023/09/26 11:37:53;;;;;;;1.40;1.30;;;;;;;;;;5052555;28;20409;-62
2023/09/26 11:40:23;;;;;;;2.10;1.40;;;;;;;;;;5048291;28;20049;-62
2023/09/26 11:42:51;;;;;;;1.42;1.27;;;;;;;;;;5051308;28;20493;-62
2023/09/26 11:45:24;;;;;;;1.27;1.17;;;;;;;;;;5047826;28;20045;-62
2023/09/26 11:47:50;;;;;;;1.08;0.98;;;;;;;;;;5048357;28;20075;-62
2023/09/26 11:50:17;;;;;;;1.60;1.50;;;;;;;;;;5051986;28;20041;-62
2023/09/26 11:52:43;;;;;;;1.20;1.10;;;;;;;;;;5053588;28;20045;-62
2023/09/26 11:55:09;;;;;;;1.45;1.35;;;;;;;;;;5051318;28;20060;-62
2023/09/26 11:57:36;;;;;;;1.50;1.33;;;;;;;;;;5055763;28;20139;-62
2023/09/26 12:00:06;;;;;;;1.48;1.38;;;;;;;;;;5053809;28;20041;-62
2023/09/26 12:02:32;;;;;;;1.33;1.23;;;;;;;;;;5055200;28;20048;-62
2023/09/26 12:04:58;;;;;;;1.67;1.58;;;;;;;;;;5047706;28;20532;-62
2023/09/26 12:07:24;;;;;;;1.30;1.13;;;;;;;;;;5052442;28;20326;-62
2023/09/26 12:09:50;;;;;;;2.17;1.67;;;;;;;;;;5048217;28;20037;-62
2023/09/26 12:12:16;;;;;;;1.65;1.33;;;;;;;;;;5047827;28;20055;-61
2023/09/26 12:14:46;;;;;;;1.75;1.52;;;;;;;;;;5045675;28;20489;-62
2023/09/26 12:17:12;;;;;;;1.77;1.42;;;;;;;;;;5054602;28;20051;-62
2023/09/26 12:19:38;;;;;;;2.00;1.80;;;;;;;;;;5044075;28;20044;-62
2023/09/26 12:22:04;;;;;;;2.25;1.95;;;;;;;;;;5046188;28;20148;-62
2023/09/26 12:24:30;;;;;;;2.47;1.92;;;;;;;;;;5042359;28;20048;-62
2023/09/26 12:26:56;;;;;;;2.15;1.95;;;;;;;;;;5041159;28;20037;-62
2023/09/26 12:29:22;;;;;;;4.60;2.67;;;;;;;;;;5042718;28;20076;-62
2023/09/26 12:31:48;;;;;;;4.82;2.10;;;;;;;;;;5047293;28;20044;-62
2023/09/26 12:34:15;;;;;;;1.77;1.35;;;;;;;;;;5045106;28;20059;-62
2023/09/26 12:36:41;;;;;;;2.58;1.35;;;;;;;;;;5041667;28;20508;-62
2023/09/26 12:39:07;;;;;;;3.15;1.50;;;;;;;;;;5041899;28;20048;-62
2023/09/26 12:41:33;;;;;;;1.42;1.25;;;;;;;;;;5045292;28;20048;-62
2023/09/26 12:43:59;;;;;;;1.73;1.63;;;;;;;;;;5045093;28;20136;-62
2023/09/26 12:46:26;;;;;;;2.58;1.42;;;;;;;;;;5046948;28;20049;-61
2023/09/26 12:48:52;;;;;;;1.98;1.50;;;;;;;;;;5043087;28;20059;-61
2023/09/26 12:51:18;;;;;;;1.63;1.50;;;;;;;;;;5041786;28;20041;-61
2023/09/26 12:53:44;;;;;;;1.52;1.42;;;;;;;;;;5038206;28;20037;-62
2023/09/26 12:56:10;;;;;;;2.00;1.83;;;;;;;;;;5039819;28;20060;-62
2023/09/26 12:58:36;;;;;;;1.98;1.48;;;;;;;;;;5045468;28;20048;-62
2023/09/26 13:01:02;;;;;;;2.33;1.55;;;;;;;;;;5042780;28;20048;-62
2023/09/26 13:03:28;;;;;;;1.73;1.30;;;;;;;;;;5045421;28;20495;-62
2023/09/26 13:05:54;;;;;;;2.13;1.55;;;;;;;;;;5044339;28;20060;-62
2023/09/26 13:08:20;;;;;;;1.95;1.60;;;;;;;;;;5043957;28;20041;-62
2023/09/26 13:10:46;;;;;;;1.42;1.33;;;;;;;;;;5045413;28;20037;-62
2023/09/26 13:13:12;;;;;;;1.58;1.48;;;;;;;;;;5046116;28;20047;-62
2023/09/26 13:15:38;;;;;;;1.38;1.20;;;;;;;;;;5038640;28;20444;-62
2023/09/26 13:18:05;;;;;;;1.63;1.52;;;;;;;;;;5037061;28;20071;-62
2023/09/26 13:20:31;;;;;;;1.38;1.25;;;;;;;;;;5038602;28;20049;-62
2023/09/26 13:22:56;;;;;;;1.52;1.42;;;;;;;;;;5041170;28;20052;-61
2023/09/26 13:25:22;;;;;;;1.73;1.63;;;;;;;;;;5047896;28;20602;-61
2023/09/26 13:27:48;;;;;;;2.65;1.63;;;;;;;;;;5041881;28;20033;-62
2023/09/26 13:30:16;;;;;;;2.38;1.30;;;;;;;;;;5042474;28;20634;-62
2023/09/26 13:32:42;;;;;;;1.55;1.30;;;;;;;;;;5043496;28;20037;-61
2023/09/26 13:35:09;;;;;;;1.20;1.10;;;;;;;;;;5038798;28;20051;-62
2023/09/26 13:37:36;;;;;;;1.65;1.55;;;;;;;;;;5039411;28;20045;-62
2023/09/26 13:40:04;;;;;;;3.72;1.77;;;;;;;;;;5043788;28;20048;-62
2023/09/26 13:42:30;;;;;;;1.27;1.17;;;;;;;;;;5036232;28;20124;-62
2023/09/26 13:44:56;;;;;;;2.25;1.80;;;;;;;;;;5043930;28;20037;-62
2023/09/26 13:47:22;;;;;;;2.10;1.90;;;;;;;;;;5041926;28;20041;-62
2023/09/26 13:49:48;;;;;;;3.13;1.85;;;;;;;;;;5043196;28;20045;-62
2023/09/26 13:52:14;;;;;;;1.60;1.45;;;;;;;;;;5044086;28;20459;-62
2023/09/26 13:54:40;;;;;;;2.40;1.67;;;;;;;;;;5043329;28;20036;-61
2023/09/26 13:57:06;;;;;;;2.53;1.40;;;;;;;;;;5045095;28;20082;-61
2023/09/26 13:59:32;;;;;;;1.92;1.33;;;;;;;;;;5048057;28;20033;-61
2023/09/26 14:01:58;;;;;;;2.03;1.38;;;;;;;;;;5047298;28;20041;-61
2023/09/26 14:04:24;;;;;;;1.48;1.38;;;;;;;;;;5045244;28;20573;-62
2023/09/26 14:06:50;;;;;;;1.50;1.40;;;;;;;;;;5054944;28;20094;-62
2023/09/26 14:09:16;;;;;;;1.15;1.05;;;;;;;;;;5037030;28;20037;-62
2023/09/26 14:11:42;;;;;;;1.48;1.27;;;;;;;;;;5044438;28;20047;-61
2023/09/26 14:14:08;;;;;;;1.13;0.90;;;;;;;;;;5043238;28;20591;-62
2023/09/26 14:16:36;;;;;;;1.40;1.30;;;;;;;;;;5044583;28;20059;-61
2023/09/26 14:19:02;;;;;;;1.38;1.08;;;;;;;;;;5044784;28;20099;-61
2023/09/26 14:21:28;;;;;;;1.55;1.40;;;;;;;;;;5043478;28;20048;-61
2023/09/26 14:23:54;;;;;;;2.47;1.40;;;;;;;;;;5043990;28;20045;-61
2023/09/26 14:26:21;;;;;;;1.17;1.02;;;;;;;;;;5044155;28;20049;-61
2023/09/26 14:28:47;;;;;;;1.08;0.98;;;;;;;;;;5044282;28;20052;-62
2023/09/26 14:31:19;;;;;;;1.50;1.40;;;;;;;;;;5045229;28;20041;-62
2023/09/26 14:33:45;;;;;;;1.17;1.00;;;;;;;;;;5044514;28;20409;-62
2023/09/26 14:36:11;;;;;;;1.30;1.20;;;;;;;;;;5045445;28;20076;-62
2023/09/26 14:38:37;;;;;;;1.17;1.08;;;;;;;;;;5052218;28;20080;-62
2023/09/26 14:41:03;;;;;;;1.52;1.00;;;;;;;;;;5044731;28;20500;-62